sensor_id;sensor_type;location;lat;lon;timestamp;P1;durP1;ratioP1;P2;durP2;ratioP2
17496;SDS011;62150;43.582;1.456;2023-05-07T05:29:03;7.97;;;2.90;;
17496;SDS011;62150;43.582;1.456;2023-05-07T05:31:31;8.00;;;2.67;;
17496;SDS011;62150;43.582;1.456;2023-05-07T05:33:58;9.85;;;2.90;;
17496;SDS011;62150;43.582;1.456;2023-05-07T05:36:26;8.18;;;2.63;;
17496;SDS011;62150;43.582;1.456;2023-05-07T05:38:53;7.45;;;3.00;;
17496;SDS011;62150;43.582;1.456;2023-05-07T05:41:21;8.27;;;2.58;;
17496;SDS011;62150;43.582;1.456;2023-05-07T05:43:49;7.90;;;2.45;;
17496;SDS011;62150;43.582;1.456;2023-05-07T05:46:17;6.82;;;2.50;;
17496;SDS011;62150;43.582;1.456;2023-05-07T05:48:45;7.45;;;2.70;;
17496;SDS011;62150;43.582;1.456;2023-05-07T05:51:12;12.48;;;2.95;;
17496;SDS011;62150;43.582;1.456;2023-05-07T05:53:40;8.82;;;2.63;;
17496;SDS011;62150;43.582;1.456;2023-05-07T05:56:07;9.35;;;2.75;;
17496;SDS011;62150;43.582;1.456;2023-05-07T05:58:35;9.98;;;2.88;;
17496;SDS011;62150;43.582;1.456;2023-05-07T06:01:03;7.68;;;2.40;;
17496;SDS011;62150;43.582;1.456;2023-05-07T06:03:32;6.63;;;2.67;;
17496;SDS011;62150;43.582;1.456;2023-05-07T06:05:59;6.72;;;2.38;;
17496;SDS011;62150;43.582;1.456;2023-05-07T06:08:28;6.35;;;2.35;;
17496;SDS011;62150;43.582;1.456;2023-05-07T06:10:56;8.70;;;3.17;;
17496;SDS011;62150;43.582;1.456;2023-05-07T06:13:24;9.77;;;2.72;;
17496;SDS011;62150;43.582;1.456;2023-05-07T06:15:52;8.18;;;2.70;;
17496;SDS011;62150;43.582;1.456;2023-05-07T06:18:19;7.95;;;2.55;;
17496;SDS011;62150;43.582;1.456;2023-05-07T06:20:48;7.97;;;2.78;;
17496;SDS011;62150;43.582;1.456;2023-05-07T06:23:15;8.07;;;2.63;;
17496;SDS011;62150;43.582;1.456;2023-05-07T06:25:45;6.67;;;2.50;;
17496;SDS011;62150;43.582;1.456;2023-05-07T06:28:15;7.47;;;2.60;;
17496;SDS011;62150;43.582;1.456;2023-05-07T06:30:42;7.70;;;2.53;;
17496;SDS011;62150;43.582;1.456;2023-05-07T06:33:10;7.30;;;2.53;;
17496;SDS011;62150;43.582;1.456;2023-05-07T06:35:37;10.15;;;2.75;;
17496;SDS011;62150;43.582;1.456;2023-05-07T06:38:06;7.30;;;2.60;;
17496;SDS011;62150;43.582;1.456;2023-05-07T06:40:34;9.05;;;2.72;;
17496;SDS011;62150;43.582;1.456;2023-05-07T06:43:01;8.52;;;3.00;;
17496;SDS011;62150;43.582;1.456;2023-05-07T06:45:28;10.68;;;2.80;;
17496;SDS011;62150;43.582;1.456;2023-05-07T06:47:56;8.90;;;2.95;;
17496;SDS011;62150;43.582;1.456;2023-05-07T06:50:23;10.50;;;2.90;;
17496;SDS011;62150;43.582;1.456;2023-05-07T06:52:51;9.23;;;2.80;;
17496;SDS011;62150;43.582;1.456;2023-05-07T06:55:20;8.32;;;2.75;;
17496;SDS011;62150;43.582;1.456;2023-05-07T06:57:47;7.90;;;3.20;;
17496;SDS011;62150;43.582;1.456;2023-05-07T07:00:15;8.25;;;2.78;;
17496;SDS011;62150;43.582;1.456;2023-05-07T07:02:43;9.07;;;2.80;;
17496;SDS011;62150;43.582;1.456;2023-05-07T07:05:10;8.43;;;2.97;;
17496;SDS011;62150;43.582;1.456;2023-05-07T07:07:38;8.18;;;2.72;;
17496;SDS011;62150;43.582;1.456;2023-05-07T07:10:06;8.35;;;2.53;;
17496;SDS011;62150;43.582;1.456;2023-05-07T07:12:35;9.63;;;3.10;;
17496;SDS011;62150;43.582;1.456;2023-05-07T07:15:03;6.45;;;2.42;;
17496;SDS011;62150;43.582;1.456;2023-05-07T07:17:31;10.35;;;3.20;;
17496;SDS011;62150;43.582;1.456;2023-05-07T07:19:59;8.57;;;3.03;;
17496;SDS011;62150;43.582;1.456;2023-05-07T07:22:27;7.78;;;2.80;;
17496;SDS011;62150;43.582;1.456;2023-05-07T07:24:55;9.25;;;3.00;;
17496;SDS011;62150;43.582;1.456;2023-05-07T07:27:23;9.38;;;3.00;;
17496;SDS011;62150;43.582;1.456;2023-05-07T07:29:52;7.40;;;2.70;;
17496;SDS011;62150;43.582;1.456;2023-05-07T07:32:19;10.13;;;3.08;;
17496;SDS011;62150;43.582;1.456;2023-05-07T07:34:47;8.38;;;3.10;;
17496;SDS011;62150;43.582;1.456;2023-05-07T07:37:14;7.60;;;2.90;;
17496;SDS011;62150;43.582;1.456;2023-05-07T07:39:42;9.68;;;2.90;;
17496;SDS011;62150;43.582;1.456;2023-05-07T07:42:10;7.35;;;2.50;;
17496;SDS011;62150;43.582;1.456;2023-05-07T07:44:37;8.23;;;3.08;;
17496;SDS011;62150;43.582;1.456;2023-05-07T07:47:07;8.68;;;2.80;;
17496;SDS011;62150;43.582;1.456;2023-05-07T07:49:34;7.82;;;2.92;;
17496;SDS011;62150;43.582;1.456;2023-05-07T07:52:02;9.20;;;2.80;;
17496;SDS011;62150;43.582;1.456;2023-05-07T07:54:29;8.88;;;3.05;;
17496;SDS011;62150;43.582;1.456;2023-05-07T07:56:57;8.98;;;2.85;;
17496;SDS011;62150;43.582;1.456;2023-05-07T07:59:26;10.07;;;2.90;;
17496;SDS011;62150;43.582;1.456;2023-05-07T08:01:53;8.63;;;3.03;;
17496;SDS011;62150;43.582;1.456;2023-05-07T08:04:23;9.50;;;3.22;;
17496;SDS011;62150;43.582;1.456;2023-05-07T08:06:51;9.48;;;3.17;;
17496;SDS011;62150;43.582;1.456;2023-05-07T08:09:19;8.60;;;2.47;;
17496;SDS011;62150;43.582;1.456;2023-05-07T08:11:46;11.07;;;3.08;;
17496;SDS011;62150;43.582;1.456;2023-05-07T08:14:14;9.50;;;3.22;;
17496;SDS011;62150;43.582;1.456;2023-05-07T08:16:42;10.00;;;2.90;;
17496;SDS011;62150;43.582;1.456;2023-05-07T08:19:09;8.07;;;2.83;;
17496;SDS011;62150;43.582;1.456;2023-05-07T08:21:39;9.82;;;2.85;;
17496;SDS011;62150;43.582;1.456;2023-05-07T08:24:07;8.65;;;2.85;;
17496;SDS011;62150;43.582;1.456;2023-05-07T08:26:34;10.75;;;2.80;;
17496;SDS011;62150;43.582;1.456;2023-05-07T08:29:04;10.02;;;2.95;;
17496;SDS011;62150;43.582;1.456;2023-05-07T08:31:32;7.45;;;2.83;;
17496;SDS011;62150;43.582;1.456;2023-05-07T08:33:59;10.27;;;3.10;;
17496;SDS011;62150;43.582;1.456;2023-05-07T08:36:27;7.72;;;2.90;;
17496;SDS011;62150;43.582;1.456;2023-05-07T08:38:56;8.75;;;2.80;;
17496;SDS011;62150;43.582;1.456;2023-05-07T08:41:23;8.55;;;3.17;;
17496;SDS011;62150;43.582;1.456;2023-05-07T08:43:51;9.80;;;3.10;;
17496;SDS011;62150;43.582;1.456;2023-05-07T08:46:20;9.23;;;2.85;;
17496;SDS011;62150;43.582;1.456;2023-05-07T08:48:48;8.18;;;2.80;;
17496;SDS011;62150;43.582;1.456;2023-05-07T08:51:17;10.45;;;2.67;;
17496;SDS011;62150;43.582;1.456;2023-05-07T08:53:45;8.77;;;2.88;;
17496;SDS011;62150;43.582;1.456;2023-05-07T08:56:16;8.43;;;2.72;;
17496;SDS011;62150;43.582;1.456;2023-05-07T08:58:45;7.82;;;2.80;;
17496;SDS011;62150;43.582;1.456;2023-05-07T09:01:14;9.00;;;3.03;;
17496;SDS011;62150;43.582;1.456;2023-05-07T09:03:43;10.32;;;3.17;;
17496;SDS011;62150;43.582;1.456;2023-05-07T09:06:12;10.45;;;2.67;;
17496;SDS011;62150;43.582;1.456;2023-05-07T09:08:40;9.50;;;2.72;;
17496;SDS011;62150;43.582;1.456;2023-05-07T09:11:10;9.40;;;3.03;;
17496;SDS011;62150;43.582;1.456;2023-05-07T09:13:40;7.93;;;2.65;;
17496;SDS011;62150;43.582;1.456;2023-05-07T09:16:12;7.55;;;2.80;;
17496;SDS011;62150;43.582;1.456;2023-05-07T09:18:40;8.25;;;3.10;;
17496;SDS011;62150;43.582;1.456;2023-05-07T09:21:10;8.35;;;2.50;;
17496;SDS011;62150;43.582;1.456;2023-05-07T09:23:38;8.13;;;2.70;;
17496;SDS011;62150;43.582;1.456;2023-05-07T09:26:06;9.00;;;2.92;;
17496;SDS011;62150;43.582;1.456;2023-05-07T09:28:38;9.60;;;3.05;;
17496;SDS011;62150;43.582;1.456;2023-05-07T09:31:07;7.50;;;2.70;;
17496;SDS011;62150;43.582;1.456;2023-05-07T09:33:35;8.30;;;2.70;;
17496;SDS011;62150;43.582;1.456;2023-05-07T09:36:03;7.82;;;2.90;;
17496;SDS011;62150;43.582;1.456;2023-05-07T09:38:31;7.00;;;2.90;;
17496;SDS011;62150;43.582;1.456;2023-05-07T09:41:02;9.55;;;2.80;;
17496;SDS011;62150;43.582;1.456;2023-05-07T09:43:34;9.15;;;3.10;;
17496;SDS011;62150;43.582;1.456;2023-05-07T09:46:06;8.63;;;2.78;;
17496;SDS011;62150;43.582;1.456;2023-05-07T09:48:37;8.52;;;2.78;;
17496;SDS011;62150;43.582;1.456;2023-05-07T09:51:08;7.35;;;2.83;;
17496;SDS011;62150;43.582;1.456;2023-05-07T09:53:43;10.55;;;2.80;;
17496;SDS011;62150;43.582;1.456;2023-05-07T09:56:12;8.30;;;2.75;;
17496;SDS011;62150;43.582;1.456;2023-05-07T09:58:41;8.50;;;2.85;;
17496;SDS011;62150;43.582;1.456;2023-05-07T10:01:11;9.35;;;2.90;;
17496;SDS011;62150;43.582;1.456;2023-05-07T10:03:39;11.23;;;2.92;;
17496;SDS011;62150;43.582;1.456;2023-05-07T10:06:08;9.98;;;3.05;;
17496;SDS011;62150;43.582;1.456;2023-05-07T10:08:36;8.23;;;3.00;;
17496;SDS011;62150;43.582;1.456;2023-05-07T10:11:04;7.28;;;2.70;;
17496;SDS011;62150;43.582;1.456;2023-05-07T10:13:32;9.43;;;3.25;;
17496;SDS011;62150;43.582;1.456;2023-05-07T10:16:03;10.50;;;3.30;;
17496;SDS011;62150;43.582;1.456;2023-05-07T10:18:32;9.25;;;3.13;;
17496;SDS011;62150;43.582;1.456;2023-05-07T10:21:01;10.50;;;2.90;;
17496;SDS011;62150;43.582;1.456;2023-05-07T10:23:33;8.88;;;3.03;;
17496;SDS011;62150;43.582;1.456;2023-05-07T10:26:02;8.45;;;2.95;;
17496;SDS011;62150;43.582;1.456;2023-05-07T10:28:33;7.07;;;2.80;;
17496;SDS011;62150;43.582;1.456;2023-05-07T10:31:08;9.32;;;3.03;;
17496;SDS011;62150;43.582;1.456;2023-05-07T10:33:46;8.00;;;2.67;;
17496;SDS011;62150;43.582;1.456;2023-05-07T10:36:16;7.43;;;2.55;;
17496;SDS011;62150;43.582;1.456;2023-05-07T10:38:44;8.27;;;3.00;;
17496;SDS011;62150;43.582;1.456;2023-05-07T10:41:12;9.20;;;3.20;;
17496;SDS011;62150;43.582;1.456;2023-05-07T10:43:41;9.18;;;3.28;;
17496;SDS011;62150;43.582;1.456;2023-05-07T10:46:11;7.25;;;2.60;;
17496;SDS011;62150;43.582;1.456;2023-05-07T10:51:36;8.43;;;2.80;;
17496;SDS011;62150;43.582;1.456;2023-05-07T10:54:21;9.45;;;3.03;;
17496;SDS011;62150;43.582;1.456;2023-05-07T10:56:50;9.23;;;3.13;;
17496;SDS011;62150;43.582;1.456;2023-05-07T10:59:30;8.45;;;3.00;;
17496;SDS011;62150;43.582;1.456;2023-05-07T11:02:06;12.88;;;4.13;;
17496;SDS011;62150;43.582;1.456;2023-05-07T11:04:37;8.38;;;3.00;;
17496;SDS011;62150;43.582;1.456;2023-05-07T11:07:17;10.15;;;2.88;;
17496;SDS011;62150;43.582;1.456;2023-05-07T11:09:54;10.65;;;3.65;;
17496;SDS011;62150;43.582;1.456;2023-05-07T11:12:47;9.07;;;2.92;;
17496;SDS011;62150;43.582;1.456;2023-05-07T11:18:07;11.02;;;3.10;;
17496;SDS011;62150;43.582;1.456;2023-05-07T11:20:45;9.65;;;3.25;;
17496;SDS011;62150;43.582;1.456;2023-05-07T11:26:22;8.82;;;2.90;;
17496;SDS011;62150;43.582;1.456;2023-05-07T11:28:51;7.22;;;2.95;;
17496;SDS011;62150;43.582;1.456;2023-05-07T11:31:23;7.75;;;2.97;;
17496;SDS011;62150;43.582;1.456;2023-05-07T11:33:52;9.70;;;2.90;;
17496;SDS011;62150;43.582;1.456;2023-05-07T11:36:22;9.65;;;3.15;;
17496;SDS011;62150;43.582;1.456;2023-05-07T11:38:51;11.45;;;2.85;;
17496;SDS011;62150;43.582;1.456;2023-05-07T11:41:18;11.63;;;3.10;;
17496;SDS011;62150;43.582;1.456;2023-05-07T11:43:56;10.40;;;3.03;;
17496;SDS011;62150;43.582;1.456;2023-05-07T11:46:24;9.13;;;2.97;;
17496;SDS011;62150;43.582;1.456;2023-05-07T11:48:53;7.05;;;2.85;;
17496;SDS011;62150;43.582;1.456;2023-05-07T11:51:24;9.00;;;2.90;;
17496;SDS011;62150;43.582;1.456;2023-05-07T11:53:55;8.73;;;2.88;;
17496;SDS011;62150;43.582;1.456;2023-05-07T11:56:22;8.95;;;2.83;;
17496;SDS011;62150;43.582;1.456;2023-05-07T11:58:50;8.15;;;2.65;;
17496;SDS011;62150;43.582;1.456;2023-05-07T12:01:17;6.55;;;2.72;;
17496;SDS011;62150;43.582;1.456;2023-05-07T12:03:45;11.60;;;2.95;;
17496;SDS011;62150;43.582;1.456;2023-05-07T12:06:13;7.55;;;2.80;;
17496;SDS011;62150;43.582;1.456;2023-05-07T12:08:44;8.07;;;3.10;;
17496;SDS011;62150;43.582;1.456;2023-05-07T12:11:15;7.55;;;2.53;;
17496;SDS011;62150;43.582;1.456;2023-05-07T12:13:48;7.93;;;2.50;;
17496;SDS011;62150;43.582;1.456;2023-05-07T12:16:15;8.80;;;2.72;;
17496;SDS011;62150;43.582;1.456;2023-05-07T12:18:43;7.95;;;3.00;;
17496;SDS011;62150;43.582;1.456;2023-05-07T12:21:11;6.88;;;2.60;;
17496;SDS011;62150;43.582;1.456;2023-05-07T12:23:39;7.63;;;2.88;;
17496;SDS011;62150;43.582;1.456;2023-05-07T12:26:08;7.97;;;2.60;;
17496;SDS011;62150;43.582;1.456;2023-05-07T12:28:36;8.88;;;2.78;;
17496;SDS011;62150;43.582;1.456;2023-05-07T12:31:04;7.55;;;2.50;;
17496;SDS011;62150;43.582;1.456;2023-05-07T12:33:33;9.75;;;2.65;;
17496;SDS011;62150;43.582;1.456;2023-05-07T12:36:06;6.70;;;2.60;;
17496;SDS011;62150;43.582;1.456;2023-05-07T12:38:35;8.40;;;2.50;;
17496;SDS011;62150;43.582;1.456;2023-05-07T12:41:03;7.55;;;2.53;;
17496;SDS011;62150;43.582;1.456;2023-05-07T12:43:33;8.60;;;2.95;;
17496;SDS011;62150;43.582;1.456;2023-05-07T12:46:03;8.50;;;2.60;;
17496;SDS011;62150;43.582;1.456;2023-05-07T12:48:31;9.05;;;2.78;;
17496;SDS011;62150;43.582;1.456;2023-05-07T12:50:59;6.30;;;2.42;;
17496;SDS011;62150;43.582;1.456;2023-05-07T12:53:28;8.48;;;2.65;;
17496;SDS011;62150;43.582;1.456;2023-05-07T12:55:56;7.68;;;2.30;;
17496;SDS011;62150;43.582;1.456;2023-05-07T12:58:26;7.72;;;2.58;;
17496;SDS011;62150;43.582;1.456;2023-05-07T13:00:56;6.53;;;2.42;;
17496;SDS011;62150;43.582;1.456;2023-05-07T13:03:26;6.80;;;2.38;;
17496;SDS011;62150;43.582;1.456;2023-05-07T13:05:54;7.32;;;2.30;;
17496;SDS011;62150;43.582;1.456;2023-05-07T13:08:24;8.52;;;2.50;;
17496;SDS011;62150;43.582;1.456;2023-05-07T13:10:53;8.32;;;2.40;;
17496;SDS011;62150;43.582;1.456;2023-05-07T13:13:20;6.82;;;2.25;;
17496;SDS011;62150;43.582;1.456;2023-05-07T13:15:48;6.22;;;2.38;;
17496;SDS011;62150;43.582;1.456;2023-05-07T13:18:16;7.43;;;2.42;;
17496;SDS011;62150;43.582;1.456;2023-05-07T13:20:44;8.15;;;2.70;;
17496;SDS011;62150;43.582;1.456;2023-05-07T13:23:11;8.32;;;2.60;;
17496;SDS011;62150;43.582;1.456;2023-05-07T13:25:39;5.93;;;2.42;;
17496;SDS011;62150;43.582;1.456;2023-05-07T13:28:06;6.07;;;2.35;;
17496;SDS011;62150;43.582;1.456;2023-05-07T13:30:34;6.20;;;2.40;;
17496;SDS011;62150;43.582;1.456;2023-05-07T13:33:01;6.82;;;2.30;;
17496;SDS011;62150;43.582;1.456;2023-05-07T13:35:30;6.95;;;2.28;;
17496;SDS011;62150;43.582;1.456;2023-05-07T13:37:58;5.65;;;2.13;;
17496;SDS011;62150;43.582;1.456;2023-05-07T13:40:26;9.35;;;2.38;;
17496;SDS011;62150;43.582;1.456;2023-05-07T13:42:53;8.23;;;2.55;;
17496;SDS011;62150;43.582;1.456;2023-05-07T13:45:23;6.72;;;2.50;;
17496;SDS011;62150;43.582;1.456;2023-05-07T13:47:51;5.88;;;2.20;;
17496;SDS011;62150;43.582;1.456;2023-05-07T13:50:19;6.57;;;2.25;;
17496;SDS011;62150;43.582;1.456;2023-05-07T13:52:48;7.07;;;2.25;;
17496;SDS011;62150;43.582;1.456;2023-05-07T13:55:16;6.05;;;2.50;;
17496;SDS011;62150;43.582;1.456;2023-05-07T13:57:44;5.97;;;2.40;;
17496;SDS011;62150;43.582;1.456;2023-05-07T14:00:13;7.07;;;2.40;;
17496;SDS011;62150;43.582;1.456;2023-05-07T14:02:41;6.20;;;2.22;;
17496;SDS011;62150;43.582;1.456;2023-05-07T14:05:09;6.28;;;2.35;;
17496;SDS011;62150;43.582;1.456;2023-05-07T14:07:36;5.28;;;2.45;;
17496;SDS011;62150;43.582;1.456;2023-05-07T14:10:05;5.57;;;2.20;;
17496;SDS011;62150;43.582;1.456;2023-05-07T14:12:34;6.43;;;2.35;;
17496;SDS011;62150;43.582;1.456;2023-05-07T14:15:03;7.47;;;2.25;;
17496;SDS011;62150;43.582;1.456;2023-05-07T14:17:31;7.35;;;2.38;;
17496;SDS011;62150;43.582;1.456;2023-05-07T14:19:58;6.32;;;2.10;;
17496;SDS011;62150;43.582;1.456;2023-05-07T14:22:25;6.60;;;2.13;;
17496;SDS011;62150;43.582;1.456;2023-05-07T14:24:53;7.57;;;2.47;;
17496;SDS011;62150;43.582;1.456;2023-05-07T14:27:22;6.47;;;2.58;;
17496;SDS011;62150;43.582;1.456;2023-05-07T14:29:49;7.25;;;2.45;;
17496;SDS011;62150;43.582;1.456;2023-05-07T14:32:17;6.15;;;2.40;;
17496;SDS011;62150;43.582;1.456;2023-05-07T14:34:45;5.68;;;2.30;;
17496;SDS011;62150;43.582;1.456;2023-05-07T14:37:12;8.30;;;2.25;;
17496;SDS011;62150;43.582;1.456;2023-05-07T14:39:40;7.25;;;2.38;;
17496;SDS011;62150;43.582;1.456;2023-05-07T14:42:07;8.15;;;2.33;;
17496;SDS011;62150;43.582;1.456;2023-05-07T14:44:36;7.35;;;2.63;;
17496;SDS011;62150;43.582;1.456;2023-05-07T14:47:05;7.45;;;2.40;;
17496;SDS011;62150;43.582;1.456;2023-05-07T14:49:33;6.70;;;2.25;;
17496;SDS011;62150;43.582;1.456;2023-05-07T14:52:01;5.80;;;2.13;;
17496;SDS011;62150;43.582;1.456;2023-05-07T14:54:33;8.38;;;2.25;;
17496;SDS011;62150;43.582;1.456;2023-05-07T14:57:00;7.13;;;2.15;;
17496;SDS011;62150;43.582;1.456;2023-05-07T14:59:28;5.20;;;2.20;;
17496;SDS011;62150;43.582;1.456;2023-05-07T15:01:57;6.82;;;2.50;;
17496;SDS011;62150;43.582;1.456;2023-05-07T15:04:24;6.03;;;2.38;;
17496;SDS011;62150;43.582;1.456;2023-05-07T15:06:52;5.25;;;2.33;;
17496;SDS011;62150;43.582;1.456;2023-05-07T15:09:21;9.68;;;2.65;;
17496;SDS011;62150;43.582;1.456;2023-05-07T15:11:48;7.20;;;2.45;;
17496;SDS011;62150;43.582;1.456;2023-05-07T15:14:16;6.57;;;2.20;;
17496;SDS011;62150;43.582;1.456;2023-05-07T15:16:43;6.03;;;2.38;;
17496;SDS011;62150;43.582;1.456;2023-05-07T15:19:12;6.40;;;2.25;;
17496;SDS011;62150;43.582;1.456;2023-05-07T15:21:41;6.20;;;2.13;;
17496;SDS011;62150;43.582;1.456;2023-05-07T15:24:09;6.50;;;2.00;;
17496;SDS011;62150;43.582;1.456;2023-05-07T15:26:36;5.80;;;2.17;;
17496;SDS011;62150;43.582;1.456;2023-05-07T15:29:04;4.85;;;2.05;;
17496;SDS011;62150;43.582;1.456;2023-05-07T15:31:35;6.15;;;2.28;;
17496;SDS011;62150;43.582;1.456;2023-05-07T15:34:03;6.47;;;2.00;;
17496;SDS011;62150;43.582;1.456;2023-05-07T15:36:32;5.63;;;1.90;;
17496;SDS011;62150;43.582;1.456;2023-05-07T15:39:00;7.30;;;2.15;;
17496;SDS011;62150;43.582;1.456;2023-05-07T15:41:29;4.32;;;2.03;;
17496;SDS011;62150;43.582;1.456;2023-05-07T15:43:57;6.55;;;2.10;;
17496;SDS011;62150;43.582;1.456;2023-05-07T15:46:25;7.28;;;2.38;;
17496;SDS011;62150;43.582;1.456;2023-05-07T15:48:53;6.13;;;2.00;;
17496;SDS011;62150;43.582;1.456;2023-05-07T15:51:21;6.45;;;2.20;;
17496;SDS011;62150;43.582;1.456;2023-05-07T15:53:50;5.72;;;2.10;;
17496;SDS011;62150;43.582;1.456;2023-05-07T15:56:18;6.28;;;2.15;;
17496;SDS011;62150;43.582;1.456;2023-05-07T15:58:45;6.30;;;2.25;;
17496;SDS011;62150;43.582;1.456;2023-05-07T16:01:13;6.07;;;2.13;;
17496;SDS011;62150;43.582;1.456;2023-05-07T16:03:41;6.57;;;2.42;;
17496;SDS011;62150;43.582;1.456;2023-05-07T16:06:08;6.32;;;2.33;;
17496;SDS011;62150;43.582;1.456;2023-05-07T16:08:36;5.68;;;2.28;;
17496;SDS011;62150;43.582;1.456;2023-05-07T16:11:05;9.27;;;2.40;;
17496;SDS011;62150;43.582;1.456;2023-05-07T16:13:33;5.82;;;2.50;;
17496;SDS011;62150;43.582;1.456;2023-05-07T16:16:01;6.72;;;2.38;;
17496;SDS011;62150;43.582;1.456;2023-05-07T16:18:29;7.70;;;2.50;;
17496;SDS011;62150;43.582;1.456;2023-05-07T16:20:57;6.25;;;2.22;;
17496;SDS011;62150;43.582;1.456;2023-05-07T16:23:25;6.07;;;2.30;;
17496;SDS011;62150;43.582;1.456;2023-05-07T16:25:52;6.13;;;2.60;;
17496;SDS011;62150;43.582;1.456;2023-05-07T16:28:21;7.22;;;2.45;;
17496;SDS011;62150;43.582;1.456;2023-05-07T16:30:49;8.38;;;2.65;;
17496;SDS011;62150;43.582;1.456;2023-05-07T16:33:16;6.90;;;2.20;;
17496;SDS011;62150;43.582;1.456;2023-05-07T16:35:49;6.60;;;2.40;;
17496;SDS011;62150;43.582;1.456;2023-05-07T16:38:17;7.53;;;2.60;;
17496;SDS011;62150;43.582;1.456;2023-05-07T16:40:44;7.97;;;2.58;;
17496;SDS011;62150;43.582;1.456;2023-05-07T16:43:12;6.57;;;2.20;;
17496;SDS011;62150;43.582;1.456;2023-05-07T16:45:41;6.07;;;2.40;;
17496;SDS011;62150;43.582;1.456;2023-05-07T16:48:08;7.55;;;2.30;;
17496;SDS011;62150;43.582;1.456;2023-05-07T16:50:36;6.78;;;2.30;;
17496;SDS011;62150;43.582;1.456;2023-05-07T16:53:04;6.90;;;2.45;;
17496;SDS011;62150;43.582;1.456;2023-05-07T16:55:32;7.53;;;2.70;;
17496;SDS011;62150;43.582;1.456;2023-05-07T16:58:02;8.30;;;2.75;;
17496;SDS011;62150;43.582;1.456;2023-05-07T17:00:30;7.47;;;2.55;;
17496;SDS011;62150;43.582;1.456;2023-05-07T17:02:59;8.18;;;2.50;;
17496;SDS011;62150;43.582;1.456;2023-05-07T17:05:26;10.95;;;2.92;;
17496;SDS011;62150;43.582;1.456;2023-05-07T17:07:54;7.70;;;2.80;;
17496;SDS011;62150;43.582;1.456;2023-05-07T17:10:22;7.50;;;2.65;;
17496;SDS011;62150;43.582;1.456;2023-05-07T17:12:50;8.85;;;2.78;;
17496;SDS011;62150;43.582;1.456;2023-05-07T17:15:18;9.63;;;2.70;;
17496;SDS011;62150;43.582;1.456;2023-05-07T17:17:45;8.13;;;2.47;;
17496;SDS011;62150;43.582;1.456;2023-05-07T17:20:14;7.90;;;2.40;;
17496;SDS011;62150;43.582;1.456;2023-05-07T17:22:42;6.35;;;2.42;;
17496;SDS011;62150;43.582;1.456;2023-05-07T17:25:12;7.90;;;2.83;;
17496;SDS011;62150;43.582;1.456;2023-05-07T17:27:40;7.88;;;2.95;;
17496;SDS011;62150;43.582;1.456;2023-05-07T17:30:08;7.50;;;2.92;;
17496;SDS011;62150;43.582;1.456;2023-05-07T17:32:36;6.22;;;2.80;;
17496;SDS011;62150;43.582;1.456;2023-05-07T17:35:04;8.82;;;2.80;;
17496;SDS011;62150;43.582;1.456;2023-05-07T17:37:33;7.82;;;2.75;;
17496;SDS011;62150;43.582;1.456;2023-05-07T17:40:01;6.43;;;2.63;;
17496;SDS011;62150;43.582;1.456;2023-05-07T17:42:29;8.48;;;2.53;;
17496;SDS011;62150;43.582;1.456;2023-05-07T17:44:57;7.88;;;2.92;;
17496;SDS011;62150;43.582;1.456;2023-05-07T17:47:24;10.05;;;3.00;;
17496;SDS011;62150;43.582;1.456;2023-05-07T17:49:52;7.22;;;3.00;;
17496;SDS011;62150;43.582;1.456;2023-05-07T17:52:19;9.02;;;2.88;;
17496;SDS011;62150;43.582;1.456;2023-05-07T17:54:49;9.07;;;3.05;;
17496;SDS011;62150;43.582;1.456;2023-05-07T17:57:17;6.03;;;2.55;;
17496;SDS011;62150;43.582;1.456;2023-05-07T17:59:44;6.50;;;2.72;;
17496;SDS011;62150;43.582;1.456;2023-05-07T18:02:11;7.70;;;3.28;;
17496;SDS011;62150;43.582;1.456;2023-05-07T18:04:39;9.98;;;3.67;;
17496;SDS011;62150;43.582;1.456;2023-05-07T18:07:06;7.65;;;3.10;;
17496;SDS011;62150;43.582;1.456;2023-05-07T18:09:34;8.63;;;3.20;;
17496;SDS011;62150;43.582;1.456;2023-05-07T18:12:03;6.32;;;2.60;;
17496;SDS011;62150;43.582;1.456;2023-05-07T18:14:31;8.23;;;2.72;;
17496;SDS011;62150;43.582;1.456;2023-05-07T18:16:58;6.43;;;2.90;;
17496;SDS011;62150;43.582;1.456;2023-05-07T18:19:26;8.52;;;3.15;;
17496;SDS011;62150;43.582;1.456;2023-05-07T18:21:53;8.80;;;3.00;;
17496;SDS011;62150;43.582;1.456;2023-05-07T18:24:21;8.38;;;2.90;;
17496;SDS011;62150;43.582;1.456;2023-05-07T18:26:49;8.07;;;3.10;;
17496;SDS011;62150;43.582;1.456;2023-05-07T18:29:18;8.40;;;3.03;;
17496;SDS011;62150;43.582;1.456;2023-05-07T18:31:45;10.77;;;3.33;;
17496;SDS011;62150;43.582;1.456;2023-05-07T18:34:13;9.48;;;3.50;;
17496;SDS011;62150;43.582;1.456;2023-05-07T18:36:40;9.38;;;3.15;;
17496;SDS011;62150;43.582;1.456;2023-05-07T18:39:08;9.15;;;3.05;;
17496;SDS011;62150;43.582;1.456;2023-05-07T18:41:35;9.98;;;3.38;;
17496;SDS011;62150;43.582;1.456;2023-05-07T18:44:03;8.75;;;3.03;;
17496;SDS011;62150;43.582;1.456;2023-05-07T18:46:32;8.00;;;2.88;;
17496;SDS011;62150;43.582;1.456;2023-05-07T18:49:00;7.85;;;2.72;;
17496;SDS011;62150;43.582;1.456;2023-05-07T18:51:27;7.25;;;2.72;;
17496;SDS011;62150;43.582;1.456;2023-05-07T18:53:55;8.15;;;2.70;;
17496;SDS011;62150;43.582;1.456;2023-05-07T18:56:22;6.95;;;2.38;;
17496;SDS011;62150;43.582;1.456;2023-05-07T18:58:50;6.68;;;2.33;;
17496;SDS011;62150;43.582;1.456;2023-05-07T19:01:17;9.90;;;3.00;;
17496;SDS011;62150;43.582;1.456;2023-05-07T19:03:46;7.38;;;2.60;;
17496;SDS011;62150;43.582;1.456;2023-05-07T19:06:14;7.38;;;2.75;;
17496;SDS011;62150;43.582;1.456;2023-05-07T19:08:41;6.47;;;2.47;;
17496;SDS011;62150;43.582;1.456;2023-05-07T19:11:09;7.60;;;2.80;;
17496;SDS011;62150;43.582;1.456;2023-05-07T19:13:36;7.97;;;2.80;;
17496;SDS011;62150;43.582;1.456;2023-05-07T19:16:04;6.43;;;2.60;;
17496;SDS011;62150;43.582;1.456;2023-05-07T19:18:34;6.30;;;2.53;;
17496;SDS011;62150;43.582;1.456;2023-05-07T19:21:03;7.43;;;2.42;;
17496;SDS011;62150;43.582;1.456;2023-05-07T19:23:30;7.53;;;2.47;;
17496;SDS011;62150;43.582;1.456;2023-05-07T19:25:58;6.50;;;2.53;;
17496;SDS011;62150;43.582;1.456;2023-05-07T19:28:26;8.40;;;2.50;;
17496;SDS011;62150;43.582;1.456;2023-05-07T19:30:54;6.03;;;2.50;;
17496;SDS011;62150;43.582;1.456;2023-05-07T19:33:22;8.45;;;2.58;;
17496;SDS011;62150;43.582;1.456;2023-05-07T19:35:50;7.45;;;2.58;;
17496;SDS011;62150;43.582;1.456;2023-05-07T19:38:23;7.25;;;2.60;;
17496;SDS011;62150;43.582;1.456;2023-05-07T19:40:51;7.63;;;2.67;;
17496;SDS011;62150;43.582;1.456;2023-05-07T19:43:19;7.32;;;2.85;;
17496;SDS011;62150;43.582;1.456;2023-05-07T19:45:47;10.32;;;3.30;;
17496;SDS011;62150;43.582;1.456;2023-05-07T19:48:15;9.60;;;3.40;;
17496;SDS011;62150;43.582;1.456;2023-05-07T19:50:42;9.07;;;3.50;;
17496;SDS011;62150;43.582;1.456;2023-05-07T19:53:12;8.55;;;3.40;;
17496;SDS011;62150;43.582;1.456;2023-05-07T19:55:41;9.18;;;3.40;;
17496;SDS011;62150;43.582;1.456;2023-05-07T19:58:09;9.50;;;3.50;;
17496;SDS011;62150;43.582;1.456;2023-05-07T20:00:36;9.80;;;3.13;;
17496;SDS011;62150;43.582;1.456;2023-05-07T20:03:04;8.20;;;3.33;;
17496;SDS011;62150;43.582;1.456;2023-05-07T20:05:31;10.70;;;3.72;;
17496;SDS011;62150;43.582;1.456;2023-05-07T20:07:59;10.32;;;3.40;;
17496;SDS011;62150;43.582;1.456;2023-05-07T20:10:26;9.23;;;3.45;;
17496;SDS011;62150;43.582;1.456;2023-05-07T20:12:57;8.15;;;3.10;;
17496;SDS011;62150;43.582;1.456;2023-05-07T20:15:25;8.52;;;3.15;;
17496;SDS011;62150;43.582;1.456;2023-05-07T20:17:52;10.68;;;3.50;;
17496;SDS011;62150;43.582;1.456;2023-05-07T20:20:20;9.65;;;2.92;;
17496;SDS011;62150;43.582;1.456;2023-05-07T20:22:47;9.00;;;3.15;;
17496;SDS011;62150;43.582;1.456;2023-05-07T20:25:15;9.68;;;3.10;;
17496;SDS011;62150;43.582;1.456;2023-05-07T20:27:42;9.18;;;3.10;;
17496;SDS011;62150;43.582;1.456;2023-05-07T20:30:12;8.43;;;3.13;;